createdAt,value
2023-03-26T00:01:36.444Z,3.47
2023-03-26T00:04:05.773Z,3.40
2023-03-26T00:06:39.144Z,3.97
2023-03-26T00:09:09.670Z,3.60
2023-03-26T00:11:37.764Z,3.58
2023-03-26T00:14:05.724Z,3.35
2023-03-26T00:16:33.373Z,3.85
2023-03-26T00:19:02.068Z,3.67
2023-03-26T00:21:31.617Z,3.67
2023-03-26T00:24:05.414Z,3.67
2023-03-26T00:26:38.445Z,3.72
2023-03-26T00:29:06.914Z,4.05
2023-03-26T00:31:35.750Z,3.63
2023-03-26T00:34:05.615Z,3.38
2023-03-26T00:36:35.944Z,3.33
2023-03-26T00:39:05.689Z,3.58
2023-03-26T00:41:37.195Z,3.40
2023-03-26T00:46:32.428Z,3.40
2023-03-26T00:49:00.665Z,3.08
2023-03-26T00:51:29.047Z,2.88
2023-03-26T00:53:57.571Z,3.20
2023-03-26T00:56:25.974Z,3.25
2023-03-26T00:58:53.630Z,2.53
2023-03-26T01:01:30.667Z,3.05
2023-03-26T01:04:19.308Z,3.40
2023-03-26T01:06:46.948Z,4.22
2023-03-26T01:09:18.755Z,5.22
2023-03-26T01:11:49.244Z,6.07
2023-03-26T01:14:20.544Z,6.80
2023-03-26T01:17:02.325Z,8.20
2023-03-26T01:19:45.850Z,8.27
2023-03-26T01:22:21.748Z,9.43
2023-03-26T01:24:54.212Z,9.00
2023-03-26T01:27:40.997Z,9.93
2023-03-26T01:30:42.553Z,9.48
2023-03-26T01:33:23.702Z,11.03
2023-03-26T01:36:09.914Z,11.07
2023-03-26T01:38:46.800Z,11.02
2023-03-26T01:41:25.165Z,11.63
2023-03-26T01:44:17.753Z,11.23
2023-03-26T01:46:47.205Z,11.68
2023-03-26T01:49:14.840Z,12.25
2023-03-26T01:51:42.938Z,11.73
2023-03-26T01:54:15.662Z,11.85
2023-03-26T01:57:16.830Z,11.50
2023-03-26T02:00:15.268Z,11.70
2023-03-26T02:02:59.548Z,11.88
2023-03-26T02:05:41.917Z,11.98
2023-03-26T02:08:21.037Z,12.25
2023-03-26T02:10:58.548Z,11.60
2023-03-26T02:13:26.606Z,11.55
2023-03-26T02:15:57.827Z,11.95
2023-03-26T02:18:25.954Z,11.68
2023-03-26T02:20:53.698Z,11.70
2023-03-26T02:23:22.616Z,12.18
2023-03-26T02:25:50.190Z,11.55
2023-03-26T02:28:19.098Z,11.88
2023-03-26T02:30:47.496Z,12.15
2023-03-26T02:33:17.330Z,11.93
2023-03-26T02:35:45.990Z,12.35
2023-03-26T02:38:14.516Z,12.80
2023-03-26T02:40:42.085Z,13.63
2023-03-26T02:43:09.562Z,12.63
2023-03-26T02:45:37.783Z,12.52
2023-03-26T02:48:05.487Z,13.10
2023-03-26T02:50:39.472Z,13.20
2023-03-26T02:53:29.844Z,13.48
2023-03-26T02:56:15.437Z,12.98
2023-03-26T02:58:55.335Z,13.35
2023-03-26T03:01:22.938Z,12.85
2023-03-26T03:03:54.267Z,13.40
2023-03-26T03:06:35.476Z,12.65
2023-03-26T03:09:05.095Z,13.38
2023-03-26T03:11:32.517Z,12.77
2023-03-26T03:14:00.552Z,13.40
2023-03-26T03:16:31.164Z,12.80
2023-03-26T03:19:06.117Z,13.30
2023-03-26T03:21:38.663Z,13.85
2023-03-26T03:24:08.341Z,14.05
2023-03-26T03:26:41.316Z,13.30
2023-03-26T03:29:28.365Z,13.20
2023-03-26T03:32:00.208Z,14.52
2023-03-26T03:34:39.523Z,13.57
2023-03-26T03:37:07.503Z,13.18
2023-03-26T03:39:47.662Z,12.27
2023-03-26T03:42:19.631Z,12.27
2023-03-26T03:44:49.216Z,14.32
2023-03-26T03:47:35.483Z,13.18
2023-03-26T03:50:04.422Z,13.93
2023-03-26T03:52:32.748Z,14.32
2023-03-26T03:55:00.894Z,14.27
2023-03-26T03:57:52.600Z,14.55
2023-03-26T04:00:23.022Z,13.40
2023-03-26T04:03:06.665Z,13.80
2023-03-26T04:05:36.476Z,14.50
2023-03-26T04:08:03.949Z,14.80
2023-03-26T04:10:45.383Z,13.80
2023-03-26T04:13:13.942Z,14.32
2023-03-26T04:16:11.256Z,13.40
2023-03-26T04:18:39.986Z,14.00
2023-03-26T04:21:15.841Z,14.65
2023-03-26T04:23:44.424Z,13.73
2023-03-26T04:26:36.034Z,13.50
2023-03-26T04:29:16.934Z,13.82
2023-03-26T04:31:47.152Z,13.20
2023-03-26T04:34:24.473Z,13.70
2023-03-26T04:37:19.004Z,13.43
2023-03-26T04:39:55.125Z,14.43
2023-03-26T04:42:41.701Z,14.45
2023-03-26T04:45:22.459Z,12.98
2023-03-26T04:47:58.278Z,10.35
2023-03-26T04:50:27.245Z,10.73
2023-03-26T04:52:59.131Z,11.20
2023-03-26T04:56:01.516Z,12.65
2023-03-26T04:59:01.335Z,13.88
2023-03-26T05:01:33.174Z,12.77
2023-03-26T05:04:01.194Z,14.07
2023-03-26T05:06:30.463Z,13.50
2023-03-26T05:08:58.604Z,14.30
2023-03-26T05:11:46.303Z,13.68
2023-03-26T05:14:14.098Z,14.50
2023-03-26T05:16:42.786Z,13.98
2023-03-26T05:19:10.544Z,13.65
2023-03-26T05:21:38.473Z,13.55
2023-03-26T05:24:06.421Z,14.95
2023-03-26T05:26:34.429Z,15.13
2023-03-26T05:29:03.172Z,13.63
2023-03-26T05:31:34.813Z,15.00
2023-03-26T05:34:03.791Z,13.80
2023-03-26T05:36:31.205Z,14.85
2023-03-26T05:39:25.713Z,15.63
2023-03-26T05:42:08.361Z,17.02
2023-03-26T05:44:56.086Z,16.83
2023-03-26T05:47:28.308Z,17.40
2023-03-26T05:49:56.704Z,16.45
2023-03-26T05:52:24.466Z,16.55
2023-03-26T05:55:13.286Z,17.02
2023-03-26T05:57:59.293Z,17.50
2023-03-26T06:00:48.631Z,17.20
2023-03-26T06:03:23.138Z,18.60
2023-03-26T06:06:16.506Z,19.85
2023-03-26T06:09:01.623Z,19.42
2023-03-26T06:11:32.344Z,17.45
2023-03-26T06:14:01.444Z,16.35
2023-03-26T06:16:29.538Z,17.50
2023-03-26T06:19:07.501Z,18.40
2023-03-26T06:21:50.526Z,17.75
2023-03-26T06:24:24.798Z,16.98
2023-03-26T06:27:18.623Z,17.95
2023-03-26T06:30:04.642Z,17.77
2023-03-26T06:32:43.546Z,18.08
2023-03-26T06:35:17.124Z,18.67
2023-03-26T06:37:44.802Z,18.38
2023-03-26T06:40:13.663Z,18.10
2023-03-26T06:43:10.189Z,18.38
2023-03-26T06:46:02.341Z,18.75
2023-03-26T06:48:40.513Z,19.63
2023-03-26T06:51:40.379Z,19.73
2023-03-26T06:54:40.007Z,18.55
2023-03-26T06:57:16.463Z,19.05
2023-03-26T07:00:10.760Z,20.83
2023-03-26T07:02:56.597Z,21.05
2023-03-26T07:05:42.401Z,19.20
2023-03-26T07:08:31.624Z,18.25
2023-03-26T07:11:20.745Z,18.27
2023-03-26T07:14:28.042Z,18.20
2023-03-26T07:17:10.806Z,17.63
2023-03-26T07:19:48.954Z,19.15
2023-03-26T07:22:22.515Z,18.33
2023-03-26T07:25:06.618Z,18.35
2023-03-26T07:28:04.830Z,17.25
2023-03-26T07:31:22.016Z,17.30
2023-03-26T07:34:30.678Z,16.85
2023-03-26T07:37:36.040Z,17.23
2023-03-26T07:40:18.824Z,16.98
2023-03-26T07:43:21.112Z,16.63
2023-03-26T07:46:35.077Z,15.23
2023-03-26T07:49:21.879Z,16.27
2023-03-26T07:52:02.974Z,15.95
2023-03-26T07:54:49.794Z,15.52
2023-03-26T07:57:55.077Z,16.02
2023-03-26T08:00:52.447Z,15.70
2023-03-26T08:03:41.905Z,15.90
2023-03-26T08:06:42.870Z,15.63
2023-03-26T08:09:49.524Z,17.10
2023-03-26T08:12:49.061Z,16.08
2023-03-26T08:15:25.726Z,15.73
2023-03-26T08:18:14.642Z,16.15
2023-03-26T08:20:58.464Z,15.88
2023-03-26T08:23:53.014Z,15.95
2023-03-26T08:26:38.703Z,16.40
2023-03-26T08:29:20.353Z,14.88
2023-03-26T08:31:49.878Z,16.13
2023-03-26T08:34:17.306Z,15.27
2023-03-26T08:36:46.113Z,14.60
2023-03-26T08:39:14.234Z,14.15
2023-03-26T08:42:09.766Z,13.93
2023-03-26T08:44:57.202Z,13.95
2023-03-26T08:48:03.368Z,14.45
2023-03-26T08:50:55.904Z,14.00
2023-03-26T08:53:38.946Z,13.25
2023-03-26T08:56:29.899Z,13.88
2023-03-26T08:59:33.459Z,13.23
2023-03-26T09:02:19.642Z,13.90
2023-03-26T09:05:19.784Z,12.77
2023-03-26T09:08:05.594Z,13.05
2023-03-26T09:11:08.246Z,14.10
2023-03-26T09:13:58.261Z,14.02
2023-03-26T09:16:44.788Z,13.98
2023-03-26T09:19:21.538Z,14.50
2023-03-26T09:22:13.822Z,14.13
2023-03-26T09:24:58.340Z,12.90
2023-03-26T09:27:54.058Z,14.25
2023-03-26T09:30:54.844Z,13.25
2023-03-26T09:34:00.488Z,12.13
2023-03-26T09:36:49.378Z,11.57
2023-03-26T09:39:31.363Z,14.38
2023-03-26T09:42:24.305Z,13.10
2023-03-26T09:45:10.538Z,12.48
2023-03-26T09:48:05.435Z,12.85
2023-03-26T09:50:58.113Z,12.45
2023-03-26T09:53:46.273Z,11.93
2023-03-26T09:56:29.105Z,13.15
2023-03-26T09:59:06.355Z,13.20
2023-03-26T10:02:04.382Z,13.02
2023-03-26T10:05:18.494Z,12.90
2023-03-26T10:08:21.873Z,14.75
2023-03-26T10:11:08.194Z,12.60
2023-03-26T10:13:48.929Z,13.32
2023-03-26T10:16:28.768Z,12.90
2023-03-26T10:19:06.538Z,11.93
2023-03-26T10:22:04.340Z,12.50
2023-03-26T10:25:28.687Z,11.75
2023-03-26T10:27:56.552Z,12.00
2023-03-26T10:30:55.227Z,11.60
2023-03-26T10:33:52.252Z,12.60
2023-03-26T10:36:34.986Z,11.25
2023-03-26T10:39:36.820Z,11.20
2023-03-26T10:42:09.403Z,11.68
2023-03-26T10:45:12.445Z,11.48
2023-03-26T10:47:42.794Z,11.95
2023-03-26T10:50:23.987Z,10.07
2023-03-26T10:53:02.235Z,10.25
2023-03-26T10:55:45.329Z,11.45
2023-03-26T10:58:23.901Z,10.93
2023-03-26T11:01:05.931Z,11.30
2023-03-26T11:03:51.901Z,10.95
2023-03-26T11:06:43.352Z,8.88
2023-03-26T11:09:19.574Z,10.07
2023-03-26T11:12:26.648Z,10.60
2023-03-26T11:15:10.506Z,11.55
2023-03-26T11:17:43.584Z,10.85
2023-03-26T11:20:15.493Z,10.32
2023-03-26T11:22:42.845Z,10.32
2023-03-26T11:25:42.217Z,9.80
2023-03-26T11:28:16.399Z,8.60
2023-03-26T11:31:02.135Z,9.43
2023-03-26T11:33:37.003Z,8.70
2023-03-26T11:36:10.664Z,8.75
2023-03-26T11:38:43.702Z,8.05
2023-03-26T11:41:22.794Z,8.43
2023-03-26T11:44:28.793Z,8.45
2023-03-26T11:47:04.084Z,8.43
2023-03-26T11:49:33.262Z,8.25
2023-03-26T11:52:01.943Z,8.38
2023-03-26T11:54:30.102Z,6.90
2023-03-26T11:57:08.644Z,6.55
2023-03-26T11:59:58.244Z,6.85
2023-03-26T12:02:35.775Z,6.15
2023-03-26T12:05:33.553Z,6.90
2023-03-26T12:08:20.096Z,7.97
2023-03-26T12:11:10.907Z,6.85
2023-03-26T12:13:51.072Z,7.20
2023-03-26T12:16:21.047Z,18.38
2023-03-26T12:19:02.083Z,7.78
2023-03-26T12:21:43.019Z,7.72
2023-03-26T12:24:30.468Z,7.90
2023-03-26T12:27:02.229Z,6.18
2023-03-26T12:32:12.727Z,7.00
2023-03-26T12:34:41.484Z,7.45
2023-03-26T12:37:37.978Z,6.22
2023-03-26T12:40:15.164Z,7.22
2023-03-26T12:44:49.204Z,9.35
2023-03-26T12:45:44.275Z,7.40
2023-03-26T12:48:15.808Z,6.97
2023-03-26T12:50:57.045Z,7.10
2023-03-26T12:53:41.933Z,8.90
2023-03-26T12:56:22.114Z,7.93
2023-03-26T12:59:11.791Z,8.43
2023-03-26T13:02:02.191Z,7.70
2023-03-26T13:05:02.316Z,7.57
2023-03-26T13:08:06.880Z,8.75
2023-03-26T13:11:00.438Z,8.45
2023-03-26T13:13:28.468Z,7.18
2023-03-26T13:16:04.289Z,7.85
2023-03-26T13:18:54.151Z,9.85
2023-03-26T13:22:00.156Z,8.52
2023-03-26T13:24:37.356Z,7.97
2023-03-26T13:27:22.564Z,8.07
2023-03-26T13:29:59.556Z,6.93
2023-03-26T13:32:50.749Z,6.40
2023-03-26T13:35:26.854Z,6.70
2023-03-26T13:38:11.871Z,7.13
2023-03-26T13:40:42.785Z,7.45
2023-03-26T13:43:45.796Z,8.27
2023-03-26T13:46:37.000Z,8.70
2023-03-26T13:49:15.686Z,8.50
2023-03-26T13:52:01.068Z,7.97
2023-03-26T13:54:44.753Z,9.18
2023-03-26T13:57:20.068Z,10.73
2023-03-26T13:59:55.960Z,9.55
2023-03-26T14:02:40.005Z,10.90
2023-03-26T14:05:45.602Z,10.10
2023-03-26T14:08:31.660Z,9.93
2023-03-26T14:11:42.222Z,9.82
2023-03-26T14:14:09.912Z,9.93
2023-03-26T14:16:46.181Z,9.77
2023-03-26T14:19:23.876Z,9.75
2023-03-26T14:22:10.146Z,9.50
2023-03-26T14:24:44.095Z,9.93
2023-03-26T14:27:29.517Z,8.38
2023-03-26T14:30:17.905Z,9.82
2023-03-26T14:32:45.916Z,9.30
2023-03-26T14:35:37.554Z,8.50
2023-03-26T14:38:08.049Z,8.82
2023-03-26T14:40:49.990Z,8.80
2023-03-26T14:43:54.950Z,8.52
2023-03-26T14:46:47.019Z,8.95
2023-03-26T14:49:23.372Z,6.57
2023-03-26T14:52:29.316Z,5.90
2023-03-26T14:55:01.988Z,5.03
2023-03-26T14:57:55.697Z,4.95
2023-03-26T15:00:44.858Z,4.45
2023-03-26T15:03:12.281Z,4.63
2023-03-26T15:06:23.925Z,4.28
2023-03-26T15:09:17.569Z,3.45
2023-03-26T15:11:51.012Z,3.13
2023-03-26T15:14:56.224Z,2.75
2023-03-26T15:17:49.780Z,2.80
2023-03-26T15:20:52.326Z,2.78
2023-03-26T15:23:31.707Z,3.70
2023-03-26T15:26:07.773Z,4.07
2023-03-26T15:29:12.748Z,4.20
2023-03-26T15:31:58.484Z,5.45
2023-03-26T15:34:57.295Z,5.15
2023-03-26T15:37:50.849Z,6.00
2023-03-26T15:40:43.972Z,6.30
2023-03-26T15:43:16.837Z,6.60
2023-03-26T15:45:53.997Z,6.97
2023-03-26T15:48:42.452Z,6.85
2023-03-26T15:51:23.047Z,13.77
2023-03-26T15:54:16.461Z,10.30
2023-03-26T15:57:16.756Z,14.82
2023-03-26T16:00:24.568Z,10.68
2023-03-26T16:03:30.969Z,9.38
2023-03-26T16:06:28.330Z,3.85
2023-03-26T16:09:12.676Z,2.42
2023-03-26T16:11:59.486Z,4.93
2023-03-26T16:14:46.822Z,8.48
2023-03-26T16:17:20.748Z,6.43
2023-03-26T16:20:28.940Z,5.78
2023-03-26T16:23:01.704Z,7.03
2023-03-26T16:25:35.307Z,7.60
2023-03-26T16:28:27.825Z,13.73
2023-03-26T16:31:37.594Z,13.48
2023-03-26T16:34:07.897Z,11.35
2023-03-26T16:36:37.739Z,8.63
2023-03-26T16:39:05.669Z,11.05
2023-03-26T16:41:56.357Z,8.27
2023-03-26T16:45:17.814Z,7.00
2023-03-26T16:47:56.523Z,8.30
2023-03-26T16:50:59.195Z,6.47
2023-03-26T16:53:46.043Z,9.23
2023-03-26T16:56:16.977Z,9.30
2023-03-26T16:59:00.566Z,9.37
2023-03-26T17:01:49.854Z,10.05
2023-03-26T17:04:24.957Z,11.85
2023-03-26T17:07:15.374Z,11.25
2023-03-26T17:10:22.074Z,11.70
2023-03-26T17:13:11.494Z,8.13
2023-03-26T17:15:58.132Z,9.13
2023-03-26T17:18:47.172Z,8.93
2023-03-26T17:21:53.906Z,9.15
2023-03-26T17:25:06.146Z,8.77
2023-03-26T17:28:12.496Z,8.48
2023-03-26T17:31:10.972Z,8.73
2023-03-26T17:33:39.618Z,9.20
2023-03-26T17:36:13.126Z,8.85
2023-03-26T17:38:47.946Z,10.15
2023-03-26T17:41:50.488Z,9.93
2023-03-26T17:44:41.069Z,10.13
2023-03-26T17:47:22.160Z,10.85
2023-03-26T17:49:55.493Z,9.80
2023-03-26T17:52:29.757Z,10.57
2023-03-26T17:54:58.008Z,11.05
2023-03-26T17:57:41.939Z,11.73
2023-03-26T18:00:26.953Z,12.25
2023-03-26T18:03:24.023Z,12.93
2023-03-26T18:05:56.503Z,13.18
2023-03-26T18:08:41.899Z,13.40
2023-03-26T18:11:15.391Z,13.40
2023-03-26T18:13:51.711Z,13.82
2023-03-26T18:16:36.942Z,12.98
2023-03-26T18:19:18.288Z,13.68
2023-03-26T18:21:51.967Z,13.10
2023-03-26T18:24:24.584Z,13.43
2023-03-26T18:26:56.729Z,11.98
2023-03-26T18:29:28.751Z,13.65
2023-03-26T18:32:04.104Z,13.05
2023-03-26T18:34:34.101Z,12.93
2023-03-26T18:37:17.039Z,12.80
2023-03-26T18:39:58.995Z,13.00
2023-03-26T18:45:00.289Z,10.60
2023-03-26T18:47:30.524Z,11.55
2023-03-26T18:49:59.761Z,13.32
2023-03-26T18:52:29.426Z,12.73
2023-03-26T18:54:59.126Z,12.15
2023-03-26T18:57:29.352Z,13.13
2023-03-26T19:00:15.555Z,12.73
2023-03-26T19:02:44.748Z,12.20
2023-03-26T19:05:20.218Z,12.52
2023-03-26T19:07:49.428Z,13.40
2023-03-26T19:10:21.330Z,12.85
2023-03-26T19:13:01.039Z,11.63
2023-03-26T19:15:31.253Z,12.10
2023-03-26T19:18:16.030Z,13.75
2023-03-26T19:20:47.535Z,11.88
2023-03-26T19:23:21.236Z,12.85
2023-03-26T19:25:54.754Z,13.18
2023-03-26T19:28:29.410Z,12.68
2023-03-26T19:31:30.226Z,11.68
2023-03-26T19:34:14.013Z,12.93
2023-03-26T19:37:18.620Z,11.45
2023-03-26T19:39:54.949Z,11.95
2023-03-26T19:42:44.052Z,11.77
2023-03-26T19:45:23.220Z,10.15
2023-03-26T19:48:00.439Z,11.00
2023-03-26T19:50:46.107Z,10.43
2023-03-26T19:53:16.624Z,11.15
2023-03-26T19:55:59.873Z,12.15
2023-03-26T19:58:28.118Z,12.68
2023-03-26T20:00:56.478Z,12.95
2023-03-26T20:03:39.027Z,12.30
2023-03-26T20:06:10.306Z,12.82
2023-03-26T20:08:40.482Z,11.25
2023-03-26T20:11:18.732Z,11.43
2023-03-26T20:13:46.836Z,10.02
2023-03-26T20:16:27.919Z,13.00
2023-03-26T20:19:02.249Z,11.47
2023-03-26T20:21:32.310Z,10.40
2023-03-26T20:24:01.097Z,10.68
2023-03-26T20:26:28.438Z,9.88
2023-03-26T20:28:56.282Z,9.90
2023-03-26T20:31:26.304Z,9.77
2023-03-26T20:33:54.421Z,9.70
2023-03-26T20:36:33.916Z,9.02
2023-03-26T20:39:06.374Z,9.20
2023-03-26T20:41:38.113Z,8.55
2023-03-26T20:46:38.791Z,8.73
2023-03-26T20:49:06.692Z,9.38
2023-03-26T20:51:34.033Z,8.50
2023-03-26T20:54:01.982Z,9.15
2023-03-26T20:56:29.361Z,8.80
2023-03-26T21:01:29.229Z,9.20
2023-03-26T21:03:57.011Z,8.88
2023-03-26T21:06:25.048Z,8.82
2023-03-26T21:08:53.126Z,9.18
2023-03-26T21:11:26.763Z,9.07
2023-03-26T21:14:04.232Z,8.90
2023-03-26T21:16:32.407Z,8.70
2023-03-26T21:19:00.962Z,9.93
2023-03-26T21:21:49.579Z,10.25
2023-03-26T21:24:45.171Z,8.50
2023-03-26T21:27:26.117Z,8.50
2023-03-26T21:29:55.277Z,8.20
2023-03-26T21:32:23.468Z,8.30
2023-03-26T21:34:58.583Z,8.32
2023-03-26T21:37:27.832Z,8.18
2023-03-26T21:39:55.517Z,7.93
2023-03-26T21:42:27.026Z,7.90
2023-03-26T21:44:55.274Z,8.13
2023-03-26T21:47:23.098Z,7.93
2023-03-26T21:49:52.353Z,8.35
2023-03-26T21:52:19.958Z,7.68
2023-03-26T21:54:48.475Z,7.53
2023-03-26T21:57:30.211Z,7.88
2023-03-26T22:00:18.178Z,7.93
2023-03-26T22:03:06.698Z,7.40
2023-03-26T22:05:40.607Z,7.40
2023-03-26T22:08:21.456Z,7.80
2023-03-26T22:10:48.864Z,7.45
2023-03-26T22:13:16.293Z,7.30
2023-03-26T22:15:44.883Z,6.85
2023-03-26T22:18:14.217Z,7.72
2023-03-26T22:20:43.353Z,7.50
2023-03-26T22:23:12.002Z,7.28
2023-03-26T22:25:39.939Z,7.53
2023-03-26T22:28:07.224Z,7.72
2023-03-26T22:30:34.639Z,7.43
2023-03-26T22:33:02.122Z,7.05
2023-03-26T22:35:29.783Z,7.60
2023-03-26T22:38:01.022Z,7.78
2023-03-26T22:40:29.162Z,7.25
2023-03-26T22:42:56.625Z,7.78
2023-03-26T22:45:24.683Z,7.53
2023-03-26T22:47:52.771Z,7.80
2023-03-26T22:50:32.488Z,7.95
2023-03-26T22:52:59.981Z,7.82
2023-03-26T22:55:29.269Z,8.05
2023-03-26T22:57:57.630Z,8.25
2023-03-26T23:00:26.378Z,9.20
2023-03-26T23:03:00.366Z,8.40
2023-03-26T23:05:28.626Z,9.13
2023-03-26T23:07:57.164Z,8.07
2023-03-26T23:10:25.604Z,9.23
2023-03-26T23:12:53.528Z,8.40
2023-03-26T23:15:22.143Z,8.93
2023-03-26T23:17:54.822Z,9.18
2023-03-26T23:20:22.715Z,9.23
2023-03-26T23:22:50.705Z,9.23
2023-03-26T23:25:18.145Z,9.75
2023-03-26T23:27:45.666Z,9.90
2023-03-26T23:30:13.440Z,9.65
2023-03-26T23:32:41.460Z,10.45
2023-03-26T23:35:09.349Z,11.35
2023-03-26T23:37:37.166Z,10.85
2023-03-26T23:40:10.267Z,10.18
2023-03-26T23:42:37.862Z,10.35
2023-03-26T23:45:06.319Z,9.48
2023-03-26T23:47:37.403Z,9.60
2023-03-26T23:50:05.936Z,9.90
2023-03-26T23:52:33.262Z,9.90
2023-03-26T23:55:00.611Z,10.20
2023-03-26T23:57:27.958Z,10.63
2023-03-26T23:59:55.631Z,10.57
